Terminal Aerodrome Forecast
Issued by NWS Corpus Christi, TX

Home | Current Version | Previous Version | Text Only | Print | Product List | Glossary On
Versions: 1 2 3 4 5 6 7 8 9 10 11 12 13
000
FTUS44 KCRP 300537
TAFVCT
TAF
KVCT 300537Z 3006/3106 19005KT P6SM SKC
     FM300900 VRB03KT 2SM BR SCT008
      TEMPO 3010/3013 1/2SM FG VV005
     FM301400 VRB04KT P6SM SCT025
     FM302000 15008G15KT P6SM BKN040
     FM310300 18005KT P6SM SCT060=

USA.gov is the U.S. government's official web portal to all federal, state and local government web resources and services.